createdAt,value
2022-11-20T00:02:15.841Z,12.20
2022-11-20T00:07:17.374Z,11.05
2022-11-20T00:12:19.081Z,7.90
2022-11-20T00:17:20.538Z,9.20
2022-11-20T00:22:21.922Z,10.32
2022-11-20T00:27:23.628Z,9.60
2022-11-20T00:32:24.995Z,15.68
2022-11-20T00:37:26.912Z,13.82
2022-11-20T00:42:28.390Z,8.85
2022-11-20T00:47:29.790Z,12.48
2022-11-20T00:52:31.229Z,10.52
2022-11-20T00:57:32.768Z,12.57
2022-11-20T01:02:34.200Z,9.98
2022-11-20T01:07:35.825Z,9.73
2022-11-20T01:12:37.281Z,12.35
2022-11-20T01:17:38.724Z,15.15
2022-11-20T01:22:40.270Z,11.15
2022-11-20T01:27:41.839Z,14.15
2022-11-20T01:32:43.295Z,12.38
2022-11-20T01:37:44.716Z,14.02
2022-11-20T01:43:11.791Z,14.50
2022-11-20T01:48:14.025Z,13.25
2022-11-20T01:53:19.415Z,13.02
2022-11-20T01:58:26.701Z,16.02
2022-11-20T02:03:29.096Z,9.02
2022-11-20T02:08:31.459Z,11.65
2022-11-20T02:13:45.998Z,9.98
2022-11-20T02:18:48.332Z,10.85
2022-11-20T02:24:10.183Z,13.55
2022-11-20T02:29:11.643Z,14.23
2022-11-20T02:34:13.146Z,8.75
2022-11-20T02:39:17.960Z,11.25
2022-11-20T02:44:19.546Z,8.48
2022-11-20T02:49:21.317Z,14.93
2022-11-20T02:54:23.641Z,11.00
2022-11-20T02:59:25.337Z,10.70
2022-11-20T03:04:26.765Z,10.25
2022-11-20T03:09:28.200Z,13.93
2022-11-20T03:14:29.653Z,12.43
2022-11-20T03:19:31.235Z,14.88
2022-11-20T03:24:32.621Z,15.15
2022-11-20T03:29:34.013Z,11.88
2022-11-20T03:34:35.417Z,12.00
2022-11-20T03:39:36.802Z,17.00
2022-11-20T03:44:38.228Z,10.43
2022-11-20T03:49:39.626Z,13.30
2022-11-20T03:54:41.116Z,10.85
2022-11-20T03:59:42.663Z,12.55
2022-11-20T04:04:44.031Z,12.13
2022-11-20T04:09:45.604Z,9.93
2022-11-20T04:14:47.017Z,13.27
2022-11-20T04:19:48.436Z,13.32
2022-11-20T04:24:49.859Z,11.68
2022-11-20T04:29:51.278Z,13.60
2022-11-20T04:34:52.730Z,11.75
2022-11-20T04:39:54.168Z,9.15
2022-11-20T04:44:55.994Z,13.35
2022-11-20T04:49:57.411Z,20.58
2022-11-20T04:54:58.973Z,14.18
2022-11-20T05:00:00.413Z,10.07
2022-11-20T05:05:02.217Z,13.15
2022-11-20T05:10:03.974Z,13.68
2022-11-20T05:15:05.781Z,10.82
2022-11-20T05:20:08.058Z,11.18
2022-11-20T05:25:09.829Z,11.43
2022-11-20T05:30:11.936Z,13.10
2022-11-20T05:35:13.308Z,10.93
2022-11-20T05:40:14.714Z,8.80
2022-11-20T05:45:16.142Z,12.38
2022-11-20T05:50:17.573Z,11.35
2022-11-20T05:55:19.155Z,10.13
2022-11-20T06:00:20.597Z,10.48
2022-11-20T06:05:22.053Z,9.02
2022-11-20T06:10:23.428Z,10.70
2022-11-20T06:15:24.866Z,9.70
2022-11-20T06:20:26.265Z,12.10
2022-11-20T06:25:27.625Z,8.40
2022-11-20T06:30:29.024Z,8.77
2022-11-20T06:35:30.381Z,16.38
2022-11-20T06:40:31.795Z,12.68
2022-11-20T06:45:33.152Z,10.27
2022-11-20T06:50:34.582Z,9.95
2022-11-20T06:55:35.956Z,9.25
2022-11-20T07:00:37.562Z,11.95
2022-11-20T07:05:39.798Z,8.27
2022-11-20T07:10:41.149Z,9.82
2022-11-20T07:15:42.686Z,10.27
2022-11-20T07:20:44.120Z,11.43
2022-11-20T07:25:45.486Z,18.08
2022-11-20T07:30:54.284Z,9.95
2022-11-20T07:35:55.743Z,14.05
2022-11-20T07:40:58.632Z,11.55
2022-11-20T07:46:00.453Z,13.07
2022-11-20T07:51:02.030Z,13.80
2022-11-20T07:56:04.064Z,16.05
2022-11-20T08:01:07.264Z,13.32
2022-11-20T08:06:08.976Z,10.45
2022-11-20T08:11:29.322Z,13.68
2022-11-20T08:16:30.751Z,13.43
2022-11-20T08:21:37.799Z,11.98
2022-11-20T08:26:40.487Z,14.57
2022-11-20T08:31:41.989Z,15.95
2022-11-20T08:36:43.422Z,13.98
2022-11-20T08:41:44.802Z,20.08
2022-11-20T08:46:47.330Z,17.42
2022-11-20T08:51:52.599Z,17.92
2022-11-20T08:56:54.186Z,23.83
2022-11-20T09:01:55.687Z,26.95
2022-11-20T09:06:57.269Z,32.67
2022-11-20T09:11:58.663Z,27.60
2022-11-20T09:17:00.518Z,31.83
2022-11-20T09:22:01.991Z,35.25
2022-11-20T09:27:05.285Z,50.80
2022-11-20T09:32:07.010Z,37.58
2022-11-20T09:37:08.400Z,44.90
2022-11-20T09:42:32.937Z,41.28
2022-11-20T09:47:50.737Z,46.55
2022-11-20T09:53:00.750Z,103.35
2022-11-20T09:58:03.182Z,43.80
2022-11-20T10:03:35.825Z,55.35
2022-11-20T10:08:45.715Z,53.95
2022-11-20T10:14:08.580Z,62.63
2022-11-20T10:19:46.850Z,50.88
2022-11-20T10:25:02.841Z,54.72
2022-11-20T10:30:14.338Z,56.78
2022-11-20T10:35:42.164Z,55.80
2022-11-20T10:40:52.087Z,45.53
2022-11-20T10:46:04.138Z,57.80
2022-11-20T10:51:14.973Z,53.45
2022-11-20T10:56:31.548Z,45.30
2022-11-20T11:01:42.637Z,49.10
2022-11-20T11:06:49.983Z,51.30
2022-11-20T11:11:51.426Z,51.42
2022-11-20T11:16:56.064Z,55.17
2022-11-20T11:21:58.215Z,52.65
2022-11-20T11:27:06.487Z,44.75
2022-11-20T11:32:15.307Z,46.38
2022-11-20T11:37:22.342Z,50.33
2022-11-20T11:47:27.586Z,45.05
2022-11-20T11:52:32.157Z,39.92
2022-11-20T11:57:48.410Z,52.25
2022-11-20T12:03:05.902Z,38.55
2022-11-20T12:08:24.477Z,39.45
2022-11-20T12:13:47.633Z,40.38
2022-11-20T12:18:52.188Z,39.42
2022-11-20T12:24:16.393Z,45.58
2022-11-20T12:29:44.082Z,36.30
2022-11-20T12:35:01.249Z,39.20
2022-11-20T12:40:35.682Z,29.10
2022-11-20T12:45:47.819Z,37.35
2022-11-20T12:51:22.691Z,36.00
2022-11-20T12:56:40.743Z,34.38
2022-11-20T13:01:50.596Z,35.08
2022-11-20T13:06:52.293Z,30.83
2022-11-20T13:12:16.524Z,35.22
2022-11-20T13:17:48.040Z,36.80
2022-11-20T13:22:58.223Z,34.38
2022-11-20T13:28:02.861Z,34.58
2022-11-20T13:33:09.783Z,33.05
2022-11-20T13:38:15.844Z,40.88
2022-11-20T13:43:38.239Z,50.53
2022-11-20T13:48:45.262Z,45.70
2022-11-20T13:54:19.845Z,39.88
2022-11-20T13:59:44.798Z,37.78
2022-11-20T14:04:49.205Z,44.58
2022-11-20T14:09:53.883Z,42.63
2022-11-20T14:14:58.699Z,46.03
2022-11-20T14:20:04.022Z,46.83
2022-11-20T14:25:13.876Z,46.78
2022-11-20T14:30:18.353Z,44.67
2022-11-20T14:35:29.836Z,55.38
2022-11-20T14:40:36.028Z,62.15
2022-11-20T14:45:39.202Z,50.57
2022-11-20T14:50:40.870Z,54.50
2022-11-20T14:55:42.241Z,52.97
2022-11-20T15:01:01.659Z,50.70
2022-11-20T15:06:04.102Z,56.50
2022-11-20T15:11:18.934Z,44.80
2022-11-20T15:16:23.074Z,50.10
2022-11-20T15:21:24.859Z,61.47
2022-11-20T15:26:28.919Z,59.78
2022-11-20T15:31:30.275Z,52.33
2022-11-20T15:36:31.670Z,51.38
2022-11-20T15:41:33.092Z,57.35
2022-11-20T15:46:40.855Z,47.63
2022-11-20T15:51:45.223Z,49.15
2022-11-20T15:56:48.098Z,52.20
2022-11-20T16:01:50.391Z,50.35
2022-11-20T16:06:51.815Z,53.35
2022-11-20T16:11:53.149Z,50.10
2022-11-20T16:16:54.806Z,56.38
2022-11-20T16:22:02.663Z,52.08
2022-11-20T16:27:04.735Z,53.95
2022-11-20T16:32:06.293Z,58.15
2022-11-20T16:37:10.593Z,69.75
2022-11-20T16:42:12.145Z,61.00
2022-11-20T16:47:13.599Z,64.28
2022-11-20T16:52:14.938Z,68.65
2022-11-20T16:57:16.357Z,69.82
2022-11-20T17:02:17.962Z,74.22
2022-11-20T17:07:19.979Z,68.10
2022-11-20T17:12:21.414Z,62.10
2022-11-20T17:17:22.780Z,64.85
2022-11-20T17:22:27.757Z,67.15
2022-11-20T17:27:29.177Z,72.07
2022-11-20T17:32:30.607Z,78.28
2022-11-20T17:37:32.021Z,68.45
2022-11-20T17:42:36.766Z,64.45
2022-11-20T17:47:39.454Z,56.83
2022-11-20T17:52:41.160Z,60.30
2022-11-20T17:57:56.806Z,62.47
2022-11-20T18:02:59.123Z,66.60
2022-11-20T18:08:00.602Z,62.60
2022-11-20T18:13:02.070Z,59.33
2022-11-20T18:18:03.620Z,59.08
2022-11-20T18:23:05.078Z,65.10
2022-11-20T18:28:06.527Z,65.50
2022-11-20T18:33:08.017Z,49.78
2022-11-20T18:38:09.460Z,58.53
2022-11-20T18:43:29.940Z,52.83
2022-11-20T18:48:32.312Z,65.35
2022-11-20T18:53:37.026Z,59.40
2022-11-20T18:58:41.133Z,52.47
2022-11-20T19:03:43.712Z,47.33
2022-11-20T19:08:45.101Z,48.63
2022-11-20T19:13:46.828Z,40.42
2022-11-20T19:18:49.354Z,47.75
2022-11-20T19:23:52.672Z,31.80
2022-11-20T19:28:54.401Z,43.88
2022-11-20T19:34:01.428Z,29.35
2022-11-20T19:44:14.012Z,57.95
2022-11-20T19:49:15.627Z,40.88
2022-11-20T19:54:17.631Z,41.30
2022-11-20T19:59:19.099Z,42.85
2022-11-20T20:04:20.500Z,49.47
2022-11-20T20:09:23.698Z,39.10
2022-11-20T20:14:25.374Z,31.00
2022-11-20T20:19:27.081Z,38.78
2022-11-20T20:24:28.579Z,48.08
2022-11-20T20:29:30.049Z,46.00
2022-11-20T20:34:32.082Z,42.55
2022-11-20T20:39:33.613Z,51.53
2022-11-20T20:44:59.912Z,41.00
2022-11-20T20:50:02.553Z,51.17
2022-11-20T20:55:04.547Z,62.38
2022-11-20T21:00:10.221Z,70.18
2022-11-20T21:05:11.749Z,50.90
2022-11-20T21:10:13.143Z,56.47
2022-11-20T21:15:14.593Z,55.90
2022-11-20T21:20:35.023Z,50.88
2022-11-20T21:25:38.188Z,52.45
2022-11-20T21:30:39.579Z,59.72
2022-11-20T21:35:41.475Z,50.25
2022-11-20T21:40:42.868Z,59.58
2022-11-20T21:45:44.299Z,50.60
2022-11-20T21:50:45.716Z,44.00
2022-11-20T21:55:54.821Z,58.13
2022-11-20T22:00:56.848Z,63.40
2022-11-20T22:05:59.116Z,57.67
2022-11-20T22:11:05.296Z,62.63
2022-11-20T22:16:06.703Z,63.70
2022-11-20T22:21:08.345Z,54.10
2022-11-20T22:26:12.463Z,63.35
2022-11-20T22:31:16.700Z,54.95
2022-11-20T22:36:20.778Z,60.97
2022-11-20T22:41:28.977Z,51.10
2022-11-20T22:46:33.662Z,60.78
2022-11-20T22:51:38.347Z,54.90
2022-11-20T22:56:41.019Z,51.78
2022-11-20T23:01:42.455Z,55.90
2022-11-20T23:06:43.980Z,52.45
2022-11-20T23:11:45.468Z,54.35
2022-11-20T23:16:46.886Z,46.85
2022-11-20T23:21:48.344Z,58.20
2022-11-20T23:26:50.140Z,53.28
2022-11-20T23:31:51.614Z,53.33
2022-11-20T23:36:52.967Z,50.25
2022-11-20T23:41:54.361Z,47.60
2022-11-20T23:46:55.777Z,39.38
2022-11-20T23:51:57.238Z,46.05
2022-11-20T23:56:58.591Z,48.25
